createdAt,value
2019-01-13T00:00:44.936Z,99108.39
2019-01-13T00:03:14.253Z,99108.67
2019-01-13T00:05:43.561Z,99100.23
2019-01-13T00:08:12.926Z,99102.40
2019-01-13T00:10:42.323Z,99108.11
2019-01-13T00:13:11.663Z,99111.58
2019-01-13T00:15:41.020Z,99117.56
2019-01-13T00:18:10.373Z,99115.08
2019-01-13T00:20:39.653Z,99110.80
2019-01-13T00:23:09.051Z,99113.39
2019-01-13T00:25:38.409Z,99109.94
2019-01-13T00:28:07.709Z,99111.34
2019-01-13T00:30:56.274Z,99098.91
2019-01-13T00:33:25.778Z,99077.76
2019-01-13T00:35:55.115Z,99113.41
2019-01-13T00:41:00.127Z,99024.94
2019-01-13T00:43:29.429Z,99082.80
2019-01-13T00:45:59.071Z,99072.14
2019-01-13T00:48:28.357Z,99012.84
2019-01-13T00:50:57.673Z,99059.16
2019-01-13T00:53:26.959Z,99005.89
2019-01-13T00:55:56.258Z,99046.83
2019-01-13T00:58:25.567Z,98981.88
2019-01-13T01:00:55.117Z,99028.42
2019-01-13T01:06:13.029Z,99018.83
2019-01-13T01:08:42.520Z,99022.81
2019-01-13T01:11:11.814Z,99009.97
2019-01-13T01:13:41.202Z,99002.20
2019-01-13T01:16:10.482Z,99002.30
2019-01-13T01:18:40.058Z,98989.45
2019-01-13T01:21:09.354Z,98975.69
2019-01-13T01:23:38.775Z,98972.33
2019-01-13T01:26:08.067Z,98965.48
2019-01-13T01:28:37.642Z,98952.59
2019-01-13T01:31:06.931Z,98964.34
2019-01-13T01:33:36.314Z,98969.52
2019-01-13T01:36:05.903Z,98967.84
2019-01-13T01:38:35.271Z,98969.23
2019-01-13T01:41:05.234Z,98962.31
2019-01-13T01:43:34.816Z,98965.73
2019-01-13T01:46:04.209Z,98956.38
2019-01-13T01:48:34.096Z,98963.66
2019-01-13T01:51:03.380Z,98970.63
2019-01-13T01:53:32.935Z,98976.19
2019-01-13T01:56:02.229Z,98982.22
2019-01-13T01:58:31.762Z,98985.67
2019-01-13T02:01:01.050Z,98977.95
2019-01-13T02:03:30.512Z,98993.88
2019-01-13T02:06:18.932Z,98995.22
2019-01-13T02:08:48.234Z,98996.99
2019-01-13T02:11:17.672Z,99005.18
2019-01-13T02:16:35.245Z,98995.92
2019-01-13T02:19:04.711Z,98986.77
2019-01-13T02:21:34.022Z,98975.89
2019-01-13T02:26:38.365Z,98939.34
2019-01-13T02:31:43.212Z,98943.83
2019-01-13T02:34:12.534Z,98929.97
2019-01-13T02:36:41.993Z,98923.38
2019-01-13T02:39:11.313Z,98919.06
2019-01-13T02:41:40.871Z,98915.12
2019-01-13T02:44:49.475Z,98909.52
2019-01-13T02:47:19.183Z,98904.34
2019-01-13T02:49:48.499Z,98887.51
2019-01-13T02:52:36.873Z,98887.02
2019-01-13T02:55:06.657Z,98895.17
2019-01-13T02:57:35.961Z,98846.95
2019-01-13T03:00:08.351Z,98884.32
2019-01-13T03:02:37.691Z,98844.64
2019-01-13T03:05:26.285Z,98874.70
2019-01-13T03:07:55.602Z,98874.55
2019-01-13T03:10:26.639Z,98865.37
2019-01-13T03:12:56.221Z,98849.30
2019-01-13T03:15:26.710Z,98845.61
2019-01-13T03:18:35.363Z,98842.37
2019-01-13T03:21:23.766Z,98843.45
2019-01-13T03:23:53.605Z,98827.67
2019-01-13T03:26:42.234Z,98813.80
2019-01-13T03:29:11.543Z,98819.61
2019-01-13T03:31:41.253Z,98819.05
2019-01-13T03:34:10.548Z,98820.23
2019-01-13T03:39:15.965Z,98803.41
2019-01-13T03:41:45.264Z,98801.88
2019-01-13T03:44:14.875Z,98791.39
2019-01-13T03:46:44.268Z,98785.58
2019-01-13T03:52:02.403Z,98732.85
2019-01-13T03:54:51.076Z,98774.69
2019-01-13T03:57:20.386Z,98768.99
2019-01-13T03:59:49.921Z,98768.75
2019-01-13T04:02:19.177Z,98759.09
2019-01-13T04:04:48.701Z,98752.42
2019-01-13T04:07:17.993Z,98751.37
2019-01-13T04:09:47.334Z,98742.96
2019-01-13T04:12:16.719Z,98744.95
2019-01-13T04:14:46.058Z,98734.38
2019-01-13T04:20:10.754Z,98720.26
2019-01-13T04:22:40.056Z,98707.91
2019-01-13T04:25:09.495Z,98706.85
2019-01-13T04:27:38.795Z,98693.73
2019-01-13T04:30:48.016Z,98688.34
2019-01-13T04:33:17.314Z,98683.88
2019-01-13T04:36:05.631Z,98694.91
2019-01-13T04:38:35.002Z,98687.88
2019-01-13T04:41:04.310Z,98675.55
2019-01-13T04:43:33.737Z,98664.30
2019-01-13T04:46:21.909Z,98660.84
2019-01-13T04:48:51.413Z,98670.66
2019-01-13T04:51:20.682Z,98622.95
2019-01-13T04:53:50.280Z,98650.41
2019-01-13T04:56:19.576Z,98648.60
2019-01-13T04:59:07.965Z,98644.94
2019-01-13T05:01:37.769Z,98635.70
2019-01-13T05:04:07.041Z,98567.63
2019-01-13T05:06:36.418Z,98601.13
2019-01-13T05:09:08.639Z,98595.70
2019-01-13T05:11:37.921Z,98587.29
2019-01-13T05:14:07.203Z,98580.72
2019-01-13T05:16:36.536Z,98577.16
2019-01-13T05:19:05.903Z,98574.41
2019-01-13T05:21:35.227Z,98562.94
2019-01-13T05:24:04.658Z,98556.66
2019-01-13T05:26:33.938Z,98557.44
2019-01-13T05:29:03.220Z,98549.49
2019-01-13T05:31:32.645Z,98531.14
2019-01-13T05:34:01.927Z,98516.13
2019-01-13T05:36:31.286Z,98503.84
2019-01-13T05:39:00.597Z,98491.06
2019-01-13T05:41:30.132Z,98501.38
2019-01-13T05:43:59.416Z,98500.25
2019-01-13T05:46:28.886Z,98494.41
2019-01-13T05:48:58.161Z,98452.22
2019-01-13T05:51:27.554Z,98475.07
2019-01-13T05:53:56.845Z,98457.52
2019-01-13T05:56:26.292Z,98453.09
2019-01-13T05:58:55.561Z,98441.59
2019-01-13T06:01:26.114Z,98445.34
2019-01-13T06:03:55.861Z,98431.80
2019-01-13T06:06:25.270Z,98421.69
2019-01-13T06:08:54.565Z,98363.72
2019-01-13T06:11:34.807Z,98399.84
2019-01-13T06:14:24.294Z,98395.61
2019-01-13T06:19:43.950Z,98376.05
2019-01-13T06:22:19.300Z,98367.62
2019-01-13T06:24:53.150Z,98358.62
2019-01-13T06:30:36.045Z,98335.41
2019-01-13T06:35:51.642Z,98305.22
2019-01-13T06:41:49.621Z,98304.47
2019-01-13T06:44:40.216Z,98292.76
2019-01-13T06:47:23.467Z,98282.92
2019-01-13T06:50:05.579Z,98271.30
2019-01-13T06:52:47.609Z,98266.17
2019-01-13T06:55:37.695Z,98259.86
2019-01-13T07:01:03.550Z,98249.80
2019-01-13T07:09:12.086Z,98241.72
2019-01-13T07:14:58.786Z,98230.22
2019-01-13T07:17:29.279Z,98215.98
2019-01-13T07:23:36.138Z,98204.61
2019-01-13T07:26:43.712Z,98202.41
2019-01-13T07:29:26.778Z,98190.09
2019-01-13T07:31:59.527Z,98197.36
2019-01-13T07:40:45.029Z,98168.81
2019-01-13T07:46:24.125Z,98154.70
2019-01-13T07:49:07.054Z,98146.55
2019-01-13T07:51:48.795Z,98135.06
2019-01-13T07:54:31.041Z,98125.70
2019-01-13T07:57:14.870Z,98119.88
2019-01-13T07:59:58.677Z,98110.16
2019-01-13T08:02:42.345Z,98105.68
2019-01-13T08:05:25.691Z,98104.62
2019-01-13T08:08:01.993Z,98095.72
2019-01-13T08:10:38.087Z,98086.73
2019-01-13T08:13:07.802Z,98073.91
2019-01-13T08:15:56.304Z,98067.05
2019-01-13T08:18:25.619Z,98063.38
2019-01-13T08:20:55.094Z,98053.55
2019-01-13T08:23:24.395Z,98045.70
2019-01-13T08:25:54.011Z,98039.90
2019-01-13T08:28:23.326Z,98037.28
2019-01-13T08:31:11.657Z,98030.14
2019-01-13T08:36:16.717Z,98017.34
2019-01-13T08:38:46.102Z,98014.59
2019-01-13T08:41:15.428Z,98010.09
2019-01-13T08:43:44.766Z,97997.36
2019-01-13T08:46:14.058Z,98000.36
2019-01-13T08:48:43.447Z,97980.75
2019-01-13T08:51:12.826Z,97974.91
2019-01-13T08:54:01.075Z,97965.92
2019-01-13T08:56:49.375Z,97949.39
2019-01-13T08:59:18.739Z,97945.23
2019-01-13T09:04:36.444Z,97938.02
2019-01-13T09:07:24.912Z,97931.70
2019-01-13T09:09:54.419Z,97916.74
2019-01-13T09:12:23.804Z,97926.25
2019-01-13T09:14:53.465Z,97914.86
2019-01-13T09:17:23.548Z,97853.53
2019-01-13T09:19:56.690Z,97902.47
2019-01-13T09:22:27.984Z,97889.27
2019-01-13T09:24:57.361Z,97885.23
2019-01-13T09:27:27.017Z,97882.16
2019-01-13T09:29:56.310Z,97867.30
2019-01-13T09:32:25.801Z,97865.99
2019-01-13T09:34:55.185Z,97860.76
2019-01-13T09:37:24.678Z,97856.84
2019-01-13T09:40:05.674Z,97804.93
2019-01-13T09:42:47.083Z,97818.41
2019-01-13T09:47:51.151Z,97814.73
2019-01-13T09:51:00.122Z,97812.96
2019-01-13T09:53:29.417Z,97802.26
2019-01-13T09:55:58.775Z,97786.91
2019-01-13T09:58:28.111Z,97784.27
2019-01-13T10:00:57.402Z,97773.69
2019-01-13T10:03:26.687Z,97770.48
2019-01-13T10:05:56.004Z,97709.14
2019-01-13T10:08:25.347Z,97762.39
2019-01-13T10:10:54.640Z,97737.87
2019-01-13T10:13:24.194Z,97747.03
2019-01-13T10:15:53.498Z,97737.52
2019-01-13T10:18:41.771Z,97733.22
2019-01-13T10:21:11.346Z,97725.75
2019-01-13T10:23:40.749Z,97679.17
2019-01-13T10:26:10.205Z,97700.50
2019-01-13T10:28:39.501Z,97652.63
2019-01-13T10:31:09.010Z,97688.86
2019-01-13T10:33:57.468Z,97676.12
2019-01-13T10:36:26.826Z,97668.61
2019-01-13T10:38:56.312Z,97659.45
2019-01-13T10:41:25.624Z,97657.55
2019-01-13T10:43:55.171Z,97638.76
2019-01-13T10:46:24.533Z,97580.70
2019-01-13T10:48:54.073Z,97626.95
2019-01-13T10:51:23.413Z,97616.83
2019-01-13T10:53:52.880Z,97608.37
2019-01-13T10:56:22.192Z,97606.47
2019-01-13T10:58:51.569Z,97595.03
2019-01-13T11:01:20.882Z,97585.62
2019-01-13T11:03:50.257Z,97576.33
2019-01-13T11:06:40.159Z,97544.03
2019-01-13T11:09:13.534Z,97566.88
2019-01-13T11:11:42.903Z,97558.89
2019-01-13T11:14:12.308Z,97564.59
2019-01-13T11:17:00.544Z,97348.67
2019-01-13T11:19:29.864Z,97537.75
2019-01-13T11:21:59.167Z,97533.20
2019-01-13T11:24:28.446Z,97522.46
2019-01-13T11:26:57.854Z,97521.30
2019-01-13T11:29:32.656Z,97508.75
2019-01-13T11:32:17.234Z,97501.47
2019-01-13T11:34:46.671Z,97502.17
2019-01-13T11:40:25.886Z,97472.13
2019-01-13T11:45:43.571Z,97450.06
2019-01-13T11:48:13.030Z,97448.48
2019-01-13T11:50:42.351Z,97437.20
2019-01-13T11:53:11.664Z,97431.32
2019-01-13T11:55:40.977Z,97430.38
2019-01-13T11:58:10.381Z,97416.38
2019-01-13T12:01:01.327Z,97414.80
2019-01-13T12:03:42.024Z,97409.99
2019-01-13T12:06:30.282Z,97398.97
2019-01-13T12:08:59.646Z,97394.27
2019-01-13T12:11:29.003Z,97387.94
2019-01-13T12:13:58.345Z,97379.37
2019-01-13T12:16:27.666Z,97378.91
2019-01-13T12:21:45.328Z,97364.63
2019-01-13T12:24:14.754Z,97360.89
2019-01-13T12:26:44.048Z,97358.83
2019-01-13T12:29:13.431Z,97355.23
2019-01-13T12:31:42.743Z,97338.06
2019-01-13T12:37:00.797Z,97335.36
2019-01-13T12:39:30.085Z,97285.08
2019-01-13T12:41:59.654Z,97317.00
2019-01-13T12:44:29.022Z,97320.33
2019-01-13T12:46:58.384Z,97303.63
2019-01-13T12:49:27.695Z,97301.00
2019-01-13T12:54:32.830Z,97289.01
2019-01-13T12:57:02.123Z,97290.98
2019-01-13T12:59:50.482Z,97293.97
2019-01-13T13:02:20.195Z,97283.03
2019-01-13T13:04:49.595Z,97275.72
2019-01-13T13:07:19.194Z,97271.17
2019-01-13T13:09:49.513Z,97271.51
2019-01-13T13:12:19.981Z,97251.69
2019-01-13T13:14:49.288Z,97257.78
2019-01-13T13:17:18.786Z,97246.26
2019-01-13T13:20:06.974Z,97253.48
2019-01-13T13:22:36.365Z,97242.80
2019-01-13T13:25:06.348Z,97239.56
2019-01-13T13:27:35.653Z,97229.55
2019-01-13T13:30:25.610Z,97222.44
2019-01-13T13:32:55.479Z,97226.17
2019-01-13T13:35:24.852Z,97176.64
2019-01-13T13:37:54.535Z,97206.51
2019-01-13T13:40:24.672Z,97201.95
2019-01-13T13:42:54.286Z,97198.02
2019-01-13T13:46:02.893Z,97198.83
2019-01-13T13:48:32.383Z,97179.38
2019-01-13T13:51:01.704Z,97143.81
2019-01-13T13:53:31.130Z,97158.26
2019-01-13T13:56:00.464Z,97122.72
2019-01-13T13:58:29.819Z,97153.91
2019-01-13T14:01:18.385Z,97108.70
2019-01-13T14:04:06.641Z,97147.79
2019-01-13T14:06:35.967Z,97149.75
2019-01-13T14:09:25.744Z,97147.41
2019-01-13T14:11:55.420Z,97131.22
2019-01-13T14:14:24.721Z,97130.93
2019-01-13T14:16:54.527Z,97181.42
2019-01-13T14:19:23.841Z,97111.00
2019-01-13T14:24:28.661Z,97138.09
2019-01-13T14:26:57.988Z,97180.11
2019-01-13T14:29:27.490Z,97178.47
2019-01-13T14:34:45.139Z,97179.45
2019-01-13T14:37:14.607Z,97182.35
2019-01-13T14:39:48.714Z,97180.63
2019-01-13T14:42:15.182Z,97180.58
2019-01-13T14:44:44.547Z,97187.13
2019-01-13T14:47:14.080Z,97190.79
2019-01-13T14:49:43.384Z,97184.38
2019-01-13T14:52:31.730Z,97178.80
2019-01-13T14:55:01.330Z,97181.34
2019-01-13T14:57:30.638Z,97098.89
2019-01-13T15:00:00.228Z,97182.17
2019-01-13T15:02:29.549Z,97147.25
2019-01-13T15:04:59.046Z,97184.69
2019-01-13T15:07:47.475Z,97184.36
2019-01-13T15:10:16.820Z,97187.59
2019-01-13T15:13:05.255Z,97198.55
2019-01-13T15:15:34.822Z,97177.11
2019-01-13T15:18:04.168Z,97184.64
2019-01-13T15:23:27.181Z,97184.55
2019-01-13T15:25:57.013Z,97180.62
2019-01-13T15:28:26.363Z,97184.22
2019-01-13T15:30:55.729Z,97185.19
2019-01-13T15:33:25.180Z,97186.50
2019-01-13T15:35:54.499Z,97178.97
2019-01-13T15:38:23.835Z,97177.94
2019-01-13T15:40:53.223Z,97150.06
2019-01-13T15:43:22.777Z,97180.50
2019-01-13T15:45:52.092Z,97159.87
2019-01-13T15:48:21.419Z,97187.81
2019-01-13T15:50:50.779Z,97189.13
2019-01-13T15:53:20.089Z,97182.71
2019-01-13T15:55:49.409Z,97187.81
2019-01-13T15:58:18.780Z,97186.78
2019-01-13T16:00:48.102Z,97188.70
2019-01-13T16:03:17.515Z,97188.70
2019-01-13T16:05:46.829Z,97099.44
2019-01-13T16:08:16.289Z,97189.83
2019-01-13T16:10:45.584Z,97112.09
2019-01-13T16:13:15.102Z,97192.05
2019-01-13T16:15:44.445Z,97201.22
2019-01-13T16:18:13.829Z,97193.27
2019-01-13T16:20:43.488Z,97197.97
2019-01-13T16:23:12.833Z,97190.53
2019-01-13T16:25:42.286Z,97188.13
2019-01-13T16:28:11.682Z,97192.92
2019-01-13T16:30:40.978Z,97154.02
2019-01-13T16:33:10.385Z,97198.37
2019-01-13T16:35:39.736Z,97148.86
2019-01-13T16:38:09.372Z,97196.29
2019-01-13T16:40:38.756Z,97201.09
2019-01-13T16:43:08.729Z,97201.09
2019-01-13T16:45:38.019Z,97212.80
2019-01-13T16:48:07.569Z,97206.16
2019-01-13T16:50:36.908Z,97169.95
2019-01-13T16:53:45.591Z,97215.17
2019-01-13T16:56:14.885Z,97201.64
2019-01-13T16:58:44.204Z,97227.03
2019-01-13T17:01:13.582Z,97170.61
2019-01-13T17:03:43.142Z,97225.22
2019-01-13T17:06:12.458Z,97191.78
2019-01-13T17:09:00.958Z,97239.08
2019-01-13T17:11:37.357Z,97242.59
2019-01-13T17:17:14.459Z,97249.20
2019-01-13T17:19:44.046Z,97257.92
2019-01-13T17:22:13.329Z,97256.75
2019-01-13T17:24:42.845Z,97269.95
2019-01-13T17:27:12.152Z,97266.28
2019-01-13T17:29:41.541Z,97288.75
2019-01-13T17:32:10.859Z,97286.03
2019-01-13T17:34:40.665Z,97291.38
2019-01-13T17:37:09.997Z,97300.31
2019-01-13T17:39:39.345Z,97312.79
2019-01-13T17:42:08.634Z,97275.41
2019-01-13T17:44:38.356Z,97330.16
2019-01-13T17:47:07.733Z,97340.02
2019-01-13T17:49:37.339Z,97345.38
2019-01-13T17:52:06.648Z,97343.10
2019-01-13T17:54:36.154Z,97357.38
2019-01-13T18:00:57.932Z,97358.13
2019-01-13T18:03:32.790Z,97376.08
2019-01-13T18:06:02.380Z,97388.95
2019-01-13T18:08:32.044Z,97391.22
2019-01-13T18:11:01.358Z,97400.60
2019-01-13T18:13:49.783Z,97407.97
2019-01-13T18:19:07.581Z,97424.73
2019-01-13T18:21:36.897Z,97443.13
2019-01-13T18:24:06.412Z,97448.58
2019-01-13T18:26:35.743Z,97450.25
2019-01-13T18:29:05.261Z,97466.52
2019-01-13T18:31:34.554Z,97479.90
2019-01-13T18:36:39.343Z,97494.60
2019-01-13T18:39:09.327Z,97514.17
2019-01-13T18:41:38.844Z,97527.56
2019-01-13T18:44:08.236Z,97534.43
2019-01-13T18:46:56.439Z,97544.25
2019-01-13T18:49:26.054Z,97549.91
2019-01-13T18:51:55.493Z,97565.67
2019-01-13T18:54:25.234Z,97571.33
2019-01-13T18:56:54.519Z,97579.59
2019-01-13T18:59:24.033Z,97585.59
2019-01-13T19:01:53.366Z,97599.80
2019-01-13T19:04:42.368Z,97618.38
2019-01-13T19:07:16.067Z,97625.67
2019-01-13T19:09:46.017Z,97636.10
2019-01-13T19:12:15.727Z,97639.88
2019-01-13T19:15:26.355Z,97648.44
2019-01-13T19:17:57.407Z,97654.78
2019-01-13T19:20:32.099Z,97660.80
2019-01-13T19:23:45.002Z,97669.62
2019-01-13T19:26:16.570Z,97652.58
2019-01-13T19:31:36.075Z,97706.20
2019-01-13T19:34:05.716Z,97717.98
2019-01-13T19:36:54.101Z,97723.75
2019-01-13T19:42:32.671Z,97745.59
2019-01-13T19:45:02.815Z,97751.96
2019-01-13T19:47:34.793Z,97758.08
2019-01-13T19:50:43.513Z,97768.14
2019-01-13T19:53:12.813Z,97711.49
2019-01-13T19:55:42.581Z,97775.47
2019-01-13T19:58:11.872Z,97742.33
2019-01-13T20:00:41.589Z,97805.25
2019-01-13T20:03:10.936Z,97797.25
2019-01-13T20:05:40.344Z,97803.41
2019-01-13T20:08:09.684Z,97821.07
2019-01-13T20:10:39.470Z,97818.02
2019-01-13T20:13:27.896Z,97816.50
2019-01-13T20:15:57.262Z,97858.30
2019-01-13T20:18:26.700Z,97859.45
2019-01-13T20:20:55.980Z,97860.09
2019-01-13T20:26:00.287Z,97817.34
2019-01-13T20:28:29.646Z,97878.96
2019-01-13T20:30:59.244Z,97890.50
2019-01-13T20:33:28.554Z,97845.23
2019-01-13T20:35:58.044Z,97887.92
2019-01-13T20:38:27.400Z,97904.84
2019-01-13T20:40:56.988Z,97918.04
2019-01-13T20:43:26.310Z,97914.69
2019-01-13T20:45:56.114Z,97929.55
2019-01-13T20:48:25.506Z,97931.03
2019-01-13T20:50:55.143Z,97941.27
2019-01-13T20:55:59.904Z,97942.38
2019-01-13T20:58:29.314Z,97942.55
2019-01-13T21:00:58.624Z,97964.13
2019-01-13T21:03:28.219Z,97964.69
2019-01-13T21:05:57.529Z,97966.34
2019-01-13T21:08:27.239Z,97986.13
2019-01-13T21:10:56.556Z,98006.14
2019-01-13T21:13:26.325Z,98002.42
2019-01-13T21:16:07.873Z,98002.78
2019-01-13T21:18:26.965Z,97999.42
2019-01-13T21:20:56.246Z,97948.13
2019-01-13T21:23:25.863Z,97992.63
2019-01-13T21:25:55.366Z,97998.69
2019-01-13T21:28:24.935Z,97992.19
2019-01-13T21:33:31.784Z,97992.73
2019-01-13T21:36:20.443Z,98017.35
2019-01-13T21:38:50.096Z,98013.14
2019-01-13T21:41:19.377Z,98015.20
2019-01-13T21:43:48.939Z,98010.18
2019-01-13T21:46:18.241Z,98023.36
2019-01-13T21:49:06.563Z,98027.04
2019-01-13T21:51:36.256Z,98032.91
2019-01-13T21:56:53.877Z,98055.09
2019-01-13T21:59:23.544Z,98067.06
2019-01-13T22:01:52.863Z,98056.58
2019-01-13T22:04:22.175Z,98058.23
2019-01-13T22:06:51.474Z,98065.95
2019-01-13T22:09:21.104Z,98062.31
2019-01-13T22:11:50.369Z,98064.46
2019-01-13T22:14:19.787Z,98073.92
2019-01-13T22:16:49.133Z,98061.59
2019-01-13T22:19:18.424Z,98057.86
2019-01-13T22:21:47.750Z,98047.46
2019-01-13T22:24:36.034Z,98041.14
2019-01-13T22:27:05.445Z,98030.73
2019-01-13T22:29:34.866Z,98029.63
2019-01-13T22:32:04.197Z,98034.99
2019-01-13T22:34:33.496Z,98042.61
2019-01-13T22:37:02.936Z,98042.70
2019-01-13T22:39:32.266Z,98045.22
2019-01-13T22:42:20.537Z,98045.41
2019-01-13T22:44:49.900Z,98051.45
2019-01-13T22:47:19.189Z,98050.97
2019-01-13T22:49:48.472Z,98040.56
2019-01-13T22:52:17.808Z,98036.30
2019-01-13T22:54:47.087Z,98035.45
2019-01-13T22:57:35.335Z,98053.66
2019-01-13T23:03:06.254Z,98060.46
2019-01-13T23:05:35.542Z,98026.53
2019-01-13T23:08:05.079Z,98081.98
2019-01-13T23:10:34.429Z,98087.94
2019-01-13T23:13:03.789Z,98090.91
2019-01-13T23:15:33.090Z,98095.20
2019-01-13T23:18:21.415Z,98100.94
2019-01-13T23:20:51.214Z,98099.36
2019-01-13T23:23:20.558Z,98106.98
2019-01-13T23:25:50.228Z,98103.55
2019-01-13T23:28:39.024Z,98113.00
2019-01-13T23:31:08.296Z,98112.36
2019-01-13T23:33:38.136Z,98107.61
2019-01-13T23:36:26.489Z,98055.86
2019-01-13T23:38:55.808Z,98118.37
2019-01-13T23:41:25.268Z,98111.80
2019-01-13T23:44:13.679Z,98131.01
2019-01-13T23:46:42.992Z,98126.17
2019-01-13T23:52:02.217Z,98146.07
2019-01-13T23:54:42.867Z,98151.27
2019-01-13T23:57:23.855Z,98160.38
2019-01-13T23:59:53.282Z,98174.66
